createdAt,value
2018-02-17T00:01:15.818Z,21.23
2018-02-17T00:03:43.685Z,20.23
2018-02-17T00:06:11.554Z,23.10
2018-02-17T00:08:39.425Z,21.80
2018-02-17T00:11:07.293Z,20.85
2018-02-17T00:13:35.162Z,22.40
2018-02-17T00:16:03.030Z,23.30
2018-02-17T00:18:30.899Z,20.65
2018-02-17T00:20:58.769Z,22.60
2018-02-17T00:23:26.638Z,21.90
2018-02-17T00:25:54.506Z,20.83
2018-02-17T00:28:22.310Z,20.52
2018-02-17T00:30:50.961Z,19.92
2018-02-17T00:33:18.831Z,18.62
2018-02-17T00:35:46.700Z,17.73
2018-02-17T00:38:14.568Z,18.95
2018-02-17T00:40:42.439Z,19.10
2018-02-17T00:43:10.308Z,19.87
2018-02-17T00:45:38.176Z,20.30
2018-02-17T00:48:06.044Z,19.05
2018-02-17T00:50:33.914Z,19.30
2018-02-17T00:53:01.783Z,17.80
2018-02-17T00:55:29.652Z,17.42
2018-02-17T00:57:57.517Z,19.45
2018-02-17T01:00:25.390Z,19.30
2018-02-17T01:02:53.265Z,18.75
2018-02-17T01:05:23.907Z,18.98
2018-02-17T01:07:51.760Z,19.70
2018-02-17T01:10:19.633Z,19.08
2018-02-17T01:12:47.503Z,19.55
2018-02-17T01:15:15.366Z,19.55
2018-02-17T01:17:43.234Z,17.62
2018-02-17T01:20:11.102Z,19.58
2018-02-17T01:22:38.971Z,19.70
2018-02-17T01:25:06.839Z,19.17
2018-02-17T01:27:34.706Z,17.70
2018-02-17T01:30:02.574Z,19.30
2018-02-17T01:32:30.442Z,18.65
2018-02-17T01:34:58.311Z,19.12
2018-02-17T01:37:26.182Z,19.92
2018-02-17T01:39:54.048Z,22.30
2018-02-17T01:42:21.914Z,19.73
2018-02-17T01:44:49.783Z,19.87
2018-02-17T01:47:17.651Z,22.50
2018-02-17T01:49:45.518Z,19.87
2018-02-17T01:52:13.386Z,20.73
2018-02-17T01:54:41.256Z,22.13
2018-02-17T01:57:09.840Z,20.02
2018-02-17T01:59:37.711Z,19.80
2018-02-17T02:02:05.574Z,18.95
2018-02-17T02:04:33.442Z,19.60
2018-02-17T02:07:01.310Z,19.05
2018-02-17T02:09:29.178Z,19.37
2018-02-17T02:11:57.046Z,19.70
2018-02-17T02:14:24.916Z,20.62
2018-02-17T02:16:52.780Z,20.10
2018-02-17T02:19:20.649Z,20.17
2018-02-17T02:21:48.517Z,17.45
2018-02-17T02:24:16.383Z,17.85
2018-02-17T02:26:44.251Z,20.58
2018-02-17T02:29:12.120Z,17.65
2018-02-17T02:31:39.986Z,19.25
2018-02-17T02:34:07.856Z,18.52
2018-02-17T02:36:35.723Z,18.12
2018-02-17T02:39:03.692Z,18.37
2018-02-17T02:41:34.641Z,18.17
2018-02-17T02:44:02.500Z,18.15
2018-02-17T02:46:30.366Z,18.42
2018-02-17T02:48:58.236Z,18.73
2018-02-17T02:51:26.101Z,18.17
2018-02-17T02:53:53.968Z,20.10
2018-02-17T02:56:21.837Z,20.83
2018-02-17T02:58:49.705Z,21.58
2018-02-17T03:01:17.574Z,20.75
2018-02-17T03:03:45.439Z,21.20
2018-02-17T03:06:13.307Z,19.77
2018-02-17T03:08:41.175Z,20.20
2018-02-17T03:11:09.046Z,22.73
2018-02-17T03:13:36.908Z,21.60
2018-02-17T03:16:04.777Z,26.12
2018-02-17T03:18:32.644Z,24.08
2018-02-17T03:21:00.511Z,22.13
2018-02-17T03:23:28.379Z,24.02
2018-02-17T03:25:56.245Z,24.52
2018-02-17T03:28:24.215Z,24.52
2018-02-17T03:30:52.088Z,23.90
2018-02-17T03:33:19.950Z,24.33
2018-02-17T03:35:47.818Z,22.42
2018-02-17T03:38:15.686Z,22.20
2018-02-17T03:40:43.552Z,25.77
2018-02-17T03:43:16.893Z,24.17
2018-02-17T03:45:45.533Z,23.52
2018-02-17T03:48:13.254Z,24.70
2018-02-17T03:50:41.005Z,24.80
2018-02-17T03:53:09.495Z,25.62
2018-02-17T03:55:37.222Z,27.92
2018-02-17T03:58:04.958Z,28.92
2018-02-17T04:00:32.679Z,25.20
2018-02-17T04:03:00.402Z,26.08
2018-02-17T04:05:28.174Z,25.77
2018-02-17T04:07:55.943Z,25.92
2018-02-17T04:10:23.671Z,25.83
2018-02-17T04:12:51.558Z,22.35
2018-02-17T04:15:19.425Z,21.77
2018-02-17T04:17:47.291Z,23.25
2018-02-17T04:20:15.158Z,22.02
2018-02-17T04:22:43.027Z,21.15
2018-02-17T04:25:10.893Z,19.85
2018-02-17T04:27:38.761Z,20.42
2018-02-17T04:30:06.558Z,19.80
2018-02-17T04:32:35.210Z,19.65
2018-02-17T04:35:03.078Z,19.42
2018-02-17T04:37:30.944Z,22.13
2018-02-17T04:40:16.628Z,20.88
2018-02-17T04:42:44.515Z,19.80
2018-02-17T04:45:19.122Z,22.45
2018-02-17T04:47:47.680Z,19.90
2018-02-17T04:50:31.240Z,18.90
2018-02-17T04:53:18.769Z,19.52
2018-02-17T04:56:02.303Z,19.33
2018-02-17T04:58:31.910Z,20.08
2018-02-17T05:01:00.596Z,17.95
2018-02-17T05:03:28.463Z,19.55
2018-02-17T05:05:56.330Z,19.23
2018-02-17T05:08:28.907Z,19.17
2018-02-17T05:10:56.774Z,17.25
2018-02-17T05:13:24.745Z,19.73
2018-02-17T05:16:07.459Z,17.42
2018-02-17T05:18:40.741Z,17.65
2018-02-17T05:21:10.113Z,19.65
2018-02-17T05:23:39.967Z,17.65
2018-02-17T05:26:10.396Z,17.42
2018-02-17T05:28:52.357Z,18.37
2018-02-17T05:31:22.321Z,18.02
2018-02-17T05:33:52.944Z,17.87
2018-02-17T05:36:26.546Z,18.05
2018-02-17T05:39:03.113Z,19.67
2018-02-17T05:41:36.612Z,17.75
2018-02-17T05:44:04.477Z,18.85
2018-02-17T05:46:38.286Z,17.35
2018-02-17T05:49:08.851Z,16.70
2018-02-17T05:51:37.499Z,18.05
2018-02-17T05:54:05.365Z,17.95
2018-02-17T05:56:33.233Z,16.10
2018-02-17T05:59:01.099Z,16.62
2018-02-17T06:01:28.968Z,19.12
2018-02-17T06:03:56.834Z,17.90
2018-02-17T06:06:24.700Z,16.20
2018-02-17T06:08:52.567Z,17.80
2018-02-17T06:11:20.435Z,18.25
2018-02-17T06:13:48.301Z,17.02
2018-02-17T06:16:16.169Z,17.77
2018-02-17T06:18:44.037Z,16.02
2018-02-17T06:21:11.903Z,16.30
2018-02-17T06:23:39.974Z,17.58
2018-02-17T06:26:09.194Z,17.20
2018-02-17T06:28:37.142Z,15.70
2018-02-17T06:31:08.300Z,15.05
2018-02-17T06:33:36.154Z,16.83
2018-02-17T06:36:04.020Z,17.42
2018-02-17T06:38:32.296Z,16.80
2018-02-17T06:41:00.163Z,17.42
2018-02-17T06:43:28.036Z,16.92
2018-02-17T06:46:01.220Z,18.80
2018-02-17T06:48:36.106Z,17.75
2018-02-17T06:51:11.865Z,18.65
2018-02-17T06:53:47.364Z,18.83
2018-02-17T06:56:22.747Z,18.65
2018-02-17T06:58:57.495Z,18.25
2018-02-17T07:01:31.475Z,17.65
2018-02-17T07:04:07.501Z,16.65
2018-02-17T07:06:40.775Z,17.90
2018-02-17T07:09:14.831Z,16.92
2018-02-17T07:11:48.140Z,17.60
2018-02-17T07:14:21.429Z,16.87
2018-02-17T07:16:54.303Z,17.62
2018-02-17T07:19:27.095Z,17.23
2018-02-17T07:22:00.672Z,18.17
2018-02-17T07:24:34.875Z,18.75
2018-02-17T07:27:08.476Z,18.52
2018-02-17T07:29:42.834Z,18.10
2018-02-17T07:32:17.173Z,18.17
2018-02-17T07:34:51.633Z,19.80
2018-02-17T07:37:26.969Z,18.50
2018-02-17T07:40:04.155Z,20.37
2018-02-17T07:42:40.296Z,17.95
2018-02-17T07:45:15.524Z,16.52
2018-02-17T07:47:50.183Z,18.33
2018-02-17T07:50:26.605Z,16.77
2018-02-17T07:53:02.580Z,17.77
2018-02-17T07:55:35.506Z,19.50
2018-02-17T07:58:07.557Z,17.42
2018-02-17T08:00:39.904Z,17.95
2018-02-17T08:03:12.228Z,17.75
2018-02-17T08:05:45.236Z,19.08
2018-02-17T08:08:18.439Z,18.40
2018-02-17T08:10:52.177Z,18.62
2018-02-17T08:13:24.288Z,17.50
2018-02-17T08:15:52.030Z,17.25
2018-02-17T08:18:19.899Z,16.33
2018-02-17T08:20:47.785Z,19.85
2018-02-17T08:23:15.631Z,18.35
2018-02-17T08:25:43.499Z,17.05
2018-02-17T08:28:11.365Z,15.95
2018-02-17T08:30:39.235Z,17.50
2018-02-17T08:33:07.100Z,17.58
2018-02-17T08:35:34.968Z,16.60
2018-02-17T08:38:02.836Z,17.33
2018-02-17T08:40:30.703Z,16.35
2018-02-17T08:42:58.571Z,16.73
2018-02-17T08:45:26.437Z,17.62
2018-02-17T08:47:54.305Z,17.08
2018-02-17T08:50:22.172Z,17.35
2018-02-17T08:52:50.040Z,18.52
2018-02-17T08:55:17.908Z,17.58
2018-02-17T08:57:45.775Z,15.45
2018-02-17T09:00:13.745Z,16.45
2018-02-17T09:02:41.615Z,15.57
2018-02-17T09:05:09.478Z,15.57
2018-02-17T09:07:37.347Z,16.30
2018-02-17T09:10:05.215Z,16.02
2018-02-17T09:12:33.081Z,15.27
2018-02-17T09:15:00.949Z,15.93
2018-02-17T09:17:28.816Z,17.08
2018-02-17T09:19:56.683Z,14.95
2018-02-17T09:22:24.551Z,14.70
2018-02-17T09:24:52.417Z,15.40
2018-02-17T09:27:20.284Z,16.62
2018-02-17T09:29:48.361Z,16.30
2018-02-17T09:32:16.225Z,14.05
2018-02-17T09:34:44.091Z,16.00
2018-02-17T09:37:11.960Z,16.12
2018-02-17T09:39:39.826Z,15.90
2018-02-17T09:42:07.796Z,15.10
2018-02-17T09:44:35.664Z,13.75
2018-02-17T09:47:03.531Z,13.40
2018-02-17T09:49:31.332Z,14.43
2018-02-17T09:51:59.982Z,14.10
2018-02-17T09:54:27.698Z,14.55
2018-02-17T09:56:55.419Z,14.30
2018-02-17T09:59:23.141Z,13.80
2018-02-17T10:01:50.873Z,15.05
2018-02-17T10:04:19.371Z,14.10
2018-02-17T10:06:48.281Z,12.50
2018-02-17T10:09:17.180Z,13.25
2018-02-17T10:11:45.732Z,15.10
2018-02-17T10:14:14.230Z,16.73
2018-02-17T10:16:41.953Z,15.65
2018-02-17T10:19:09.674Z,15.88
2018-02-17T10:21:37.390Z,14.23
2018-02-17T10:24:05.120Z,14.25
2018-02-17T10:26:32.979Z,13.95
2018-02-17T10:29:00.890Z,16.55
2018-02-17T10:31:29.384Z,15.40
2018-02-17T10:33:57.882Z,15.25
2018-02-17T10:36:26.014Z,14.25
2018-02-17T10:38:54.640Z,14.45
2018-02-17T10:41:22.429Z,15.20
2018-02-17T10:43:50.163Z,15.07
2018-02-17T10:46:17.878Z,15.02
2018-02-17T10:48:49.493Z,15.60
2018-02-17T10:51:24.936Z,14.77
2018-02-17T10:53:56.741Z,14.93
2018-02-17T10:56:27.231Z,16.48
2018-02-17T10:59:01.371Z,15.25
2018-02-17T11:01:29.220Z,14.65
2018-02-17T11:03:56.947Z,15.43
2018-02-17T11:06:25.442Z,15.40
2018-02-17T11:08:53.295Z,15.10
2018-02-17T11:11:21.796Z,14.00
2018-02-17T11:13:49.550Z,14.27
2018-02-17T11:16:18.042Z,14.68
2018-02-17T11:18:49.362Z,13.75
2018-02-17T11:21:19.993Z,14.57
2018-02-17T11:23:51.276Z,14.52
2018-02-17T11:26:22.249Z,15.20
2018-02-17T11:28:53.656Z,12.32
2018-02-17T11:31:24.593Z,14.60
2018-02-17T11:33:55.308Z,14.50
2018-02-17T11:36:26.354Z,12.98
2018-02-17T11:38:57.016Z,15.93
2018-02-17T11:41:28.267Z,14.32
2018-02-17T11:43:58.372Z,13.70
2018-02-17T11:46:29.068Z,16.37
2018-02-17T11:48:59.951Z,15.18
2018-02-17T11:51:31.433Z,14.25
2018-02-17T11:54:03.050Z,14.02
2018-02-17T11:56:30.937Z,12.07
2018-02-17T11:58:58.672Z,13.50
2018-02-17T12:01:27.166Z,13.93
2018-02-17T12:03:54.894Z,12.88
2018-02-17T12:06:22.627Z,12.93
2018-02-17T12:08:50.354Z,14.32
2018-02-17T12:11:18.840Z,14.35
2018-02-17T12:13:46.562Z,13.07
2018-02-17T12:16:14.294Z,13.45
2018-02-17T12:18:42.094Z,12.05
2018-02-17T12:21:09.825Z,13.68
2018-02-17T12:23:37.598Z,13.02
2018-02-17T12:26:05.338Z,12.37
2018-02-17T12:28:33.121Z,11.77
2018-02-17T12:31:00.852Z,13.10
2018-02-17T12:33:28.611Z,12.82
2018-02-17T12:35:57.100Z,12.65
2018-02-17T12:38:25.581Z,14.40
2018-02-17T12:40:53.301Z,14.57
2018-02-17T12:43:21.019Z,12.50
2018-02-17T12:45:48.780Z,13.25
2018-02-17T12:48:16.695Z,12.77
2018-02-17T12:50:44.453Z,12.37
2018-02-17T12:53:12.174Z,13.55
2018-02-17T12:55:39.890Z,13.48
2018-02-17T12:58:07.657Z,14.43
2018-02-17T13:00:35.386Z,13.20
2018-02-17T13:03:03.606Z,14.30
2018-02-17T13:05:31.349Z,13.57
2018-02-17T13:07:59.065Z,13.80
2018-02-17T13:10:27.542Z,12.75
2018-02-17T13:12:56.091Z,12.70
2018-02-17T13:15:26.450Z,13.07
2018-02-17T13:17:54.255Z,13.43
2018-02-17T13:20:21.983Z,13.90
2018-02-17T13:22:50.483Z,13.90
2018-02-17T13:25:18.206Z,13.82
2018-02-17T13:27:45.939Z,12.15
2018-02-17T13:30:13.678Z,12.98
2018-02-17T13:32:41.396Z,14.23
2018-02-17T13:35:09.167Z,13.20
2018-02-17T13:37:36.938Z,13.85
2018-02-17T13:40:05.810Z,13.38
2018-02-17T13:42:33.546Z,12.85
2018-02-17T13:45:01.322Z,13.82
2018-02-17T13:47:29.054Z,13.45
2018-02-17T13:49:56.791Z,12.57
2018-02-17T13:52:25.281Z,12.40
2018-02-17T13:54:53.768Z,12.95
2018-02-17T13:57:22.256Z,12.25
2018-02-17T13:59:49.986Z,12.85
2018-02-17T14:02:17.722Z,11.50
2018-02-17T14:04:45.446Z,12.02
2018-02-17T14:07:13.179Z,12.00
2018-02-17T14:09:40.894Z,12.25
2018-02-17T14:12:08.614Z,12.80
2018-02-17T14:14:36.392Z,12.73
2018-02-17T14:17:04.918Z,12.20
2018-02-17T14:19:32.639Z,11.98
2018-02-17T14:22:01.126Z,12.18
2018-02-17T14:24:29.611Z,11.32
2018-02-17T14:26:58.085Z,11.90
2018-02-17T14:29:26.572Z,11.30
2018-02-17T14:31:55.067Z,11.93
2018-02-17T14:34:22.787Z,11.05
2018-02-17T14:36:50.505Z,10.43
2018-02-17T14:39:18.283Z,11.45
2018-02-17T14:41:45.998Z,11.88
2018-02-17T14:44:14.479Z,11.55
2018-02-17T14:46:42.968Z,12.48
2018-02-17T14:49:11.501Z,11.35
2018-02-17T14:51:39.267Z,11.10
2018-02-17T14:54:06.986Z,11.48
2018-02-17T14:56:35.466Z,11.90
2018-02-17T14:59:03.951Z,10.60
2018-02-17T15:01:32.430Z,10.65
2018-02-17T15:04:00.914Z,11.02
2018-02-17T15:06:29.455Z,11.23
2018-02-17T15:08:57.155Z,11.70
2018-02-17T15:11:25.639Z,10.85
2018-02-17T15:13:54.143Z,10.52
2018-02-17T15:16:21.862Z,11.85
2018-02-17T15:18:49.583Z,11.30
2018-02-17T15:21:17.363Z,11.20
2018-02-17T15:23:45.130Z,9.57
2018-02-17T15:26:12.842Z,11.30
2018-02-17T15:28:41.328Z,10.00
2018-02-17T15:31:09.813Z,9.95
2018-02-17T15:33:38.290Z,10.75
2018-02-17T15:36:06.774Z,11.40
2018-02-17T15:38:35.326Z,10.35
2018-02-17T15:41:03.997Z,9.52
2018-02-17T15:43:31.799Z,11.15
2018-02-17T15:46:00.282Z,11.10
2018-02-17T15:48:29.549Z,11.52
2018-02-17T15:50:57.274Z,11.12
2018-02-17T15:53:25.025Z,11.60
2018-02-17T15:55:52.745Z,10.80
2018-02-17T15:58:20.480Z,11.30
2018-02-17T16:00:48.254Z,12.30
2018-02-17T16:03:15.974Z,12.02
2018-02-17T16:05:44.457Z,11.02
2018-02-17T16:08:12.943Z,11.70
2018-02-17T16:10:42.254Z,11.77
2018-02-17T16:13:09.971Z,11.25
2018-02-17T16:15:37.682Z,11.07
2018-02-17T16:18:05.442Z,12.77
2018-02-17T16:20:33.251Z,12.18
2018-02-17T16:23:01.004Z,12.45
2018-02-17T16:25:28.754Z,13.05
2018-02-17T16:27:56.514Z,11.80
2018-02-17T16:30:24.224Z,11.70
2018-02-17T16:32:51.939Z,11.23
2018-02-17T16:35:19.672Z,11.45
2018-02-17T16:37:48.162Z,12.00
2018-02-17T16:40:16.662Z,13.48
2018-02-17T16:42:44.433Z,14.20
2018-02-17T16:45:12.147Z,14.48
2018-02-17T16:47:39.866Z,13.75
2018-02-17T16:50:07.627Z,12.20
2018-02-17T16:52:35.348Z,12.45
2018-02-17T16:55:03.065Z,11.93
2018-02-17T16:57:30.783Z,13.65
2018-02-17T16:59:59.280Z,11.02
2018-02-17T17:02:27.766Z,11.70
2018-02-17T17:04:55.493Z,11.73
2018-02-17T17:07:23.330Z,11.30
2018-02-17T17:09:51.066Z,10.20
2018-02-17T17:12:18.781Z,11.82
2018-02-17T17:14:46.498Z,11.60
2018-02-17T17:17:14.229Z,11.63
2018-02-17T17:19:41.962Z,12.60
2018-02-17T17:22:09.678Z,11.55
2018-02-17T17:24:38.158Z,10.55
2018-02-17T17:27:06.646Z,12.02
2018-02-17T17:29:34.406Z,12.45
2018-02-17T17:32:02.939Z,12.37
2018-02-17T17:34:30.702Z,11.63
2018-02-17T17:36:58.426Z,11.63
2018-02-17T17:39:26.146Z,10.40
2018-02-17T17:41:53.862Z,11.15
2018-02-17T17:44:21.625Z,10.35
2018-02-17T17:46:49.371Z,10.85
2018-02-17T17:49:17.854Z,11.18
2018-02-17T17:51:46.338Z,11.10
2018-02-17T17:54:15.074Z,11.30
2018-02-17T17:56:42.789Z,10.55
2018-02-17T17:59:11.270Z,11.07
2018-02-17T18:01:40.730Z,10.98
2018-02-17T18:04:09.263Z,11.98
2018-02-17T18:06:36.973Z,11.55
2018-02-17T18:09:05.555Z,11.57
2018-02-17T18:11:34.347Z,11.68
2018-02-17T18:14:03.136Z,10.32
2018-02-17T18:16:32.341Z,12.30
2018-02-17T18:19:00.117Z,10.75
2018-02-17T18:21:27.850Z,10.63
2018-02-17T18:23:55.732Z,11.55
2018-02-17T18:26:23.449Z,11.32
2018-02-17T18:28:51.165Z,10.68
2018-02-17T18:31:18.929Z,11.60
2018-02-17T18:33:46.646Z,11.70
2018-02-17T18:36:14.366Z,10.85
2018-02-17T18:38:42.082Z,12.32
2018-02-17T18:41:09.798Z,11.90
2018-02-17T18:43:37.511Z,11.70
2018-02-17T18:46:05.250Z,12.20
2018-02-17T18:48:33.739Z,11.60
2018-02-17T18:51:02.215Z,12.60
2018-02-17T18:53:30.714Z,10.45
2018-02-17T18:55:58.428Z,13.25
2018-02-17T18:58:26.178Z,12.00
2018-02-17T19:00:53.890Z,12.77
2018-02-17T19:03:22.394Z,11.40
2018-02-17T19:05:50.106Z,12.85
2018-02-17T19:08:17.822Z,12.65
2018-02-17T19:10:45.581Z,12.27
2018-02-17T19:13:13.342Z,11.88
2018-02-17T19:15:41.063Z,12.88
2018-02-17T19:18:08.778Z,13.13
2018-02-17T19:20:36.498Z,12.82
2018-02-17T19:23:04.222Z,13.73
2018-02-17T19:25:31.941Z,12.60
2018-02-17T19:28:00.422Z,14.43
2018-02-17T19:30:28.938Z,14.35
2018-02-17T19:32:56.658Z,13.48
2018-02-17T19:35:24.374Z,13.55
2018-02-17T19:37:52.093Z,13.32
2018-02-17T19:40:20.571Z,14.87
2018-02-17T19:42:49.075Z,13.62
2018-02-17T19:45:16.803Z,14.30
2018-02-17T19:47:44.565Z,13.75
2018-02-17T19:50:12.301Z,13.62
2018-02-17T19:52:40.045Z,14.70
2018-02-17T19:55:07.810Z,14.27
2018-02-17T19:57:35.574Z,17.50
2018-02-17T20:00:03.403Z,19.27
2018-02-17T20:02:31.122Z,21.12
2018-02-17T20:04:58.859Z,22.75
2018-02-17T20:07:26.581Z,34.15
2018-02-17T20:09:54.300Z,37.08
2018-02-17T20:12:22.019Z,39.17
2018-02-17T20:14:49.739Z,35.58
2018-02-17T20:17:17.457Z,36.47
2018-02-17T20:19:45.941Z,33.83
2018-02-17T20:22:14.429Z,29.17
2018-02-17T20:24:42.910Z,29.60
2018-02-17T20:27:11.393Z,27.52
2018-02-17T20:29:39.874Z,26.75
2018-02-17T20:32:08.362Z,20.92
2018-02-17T20:34:36.855Z,17.35
2018-02-17T20:37:04.596Z,15.48
2018-02-17T20:39:32.342Z,14.80
2018-02-17T20:42:00.082Z,14.18
2018-02-17T20:44:27.810Z,13.43
2018-02-17T20:46:55.546Z,14.73
2018-02-17T20:49:23.266Z,13.32
2018-02-17T20:51:51.057Z,14.57
2018-02-17T20:54:18.779Z,12.90
2018-02-17T20:56:46.607Z,14.32
2018-02-17T20:59:14.322Z,13.40
2018-02-17T21:01:42.057Z,13.93
2018-02-17T21:04:09.779Z,14.05
2018-02-17T21:06:37.508Z,15.02
2018-02-17T21:09:05.254Z,14.30
2018-02-17T21:11:32.974Z,14.52
2018-02-17T21:14:00.703Z,14.40
2018-02-17T21:16:28.443Z,15.88
2018-02-17T21:18:56.165Z,15.40
2018-02-17T21:21:23.898Z,15.07
2018-02-17T21:23:51.614Z,15.80
2018-02-17T21:26:20.114Z,14.63
2018-02-17T21:28:48.601Z,15.65
2018-02-17T21:31:16.322Z,14.52
2018-02-17T21:33:44.059Z,16.55
2018-02-17T21:36:11.780Z,15.10
2018-02-17T21:38:40.258Z,13.93
2018-02-17T21:41:08.750Z,15.63
2018-02-17T21:43:37.268Z,15.48
2018-02-17T21:46:05.002Z,15.40
2018-02-17T21:48:32.722Z,16.02
2018-02-17T21:51:00.435Z,15.27
2018-02-17T21:53:28.167Z,15.20
2018-02-17T21:55:55.878Z,16.50
2018-02-17T21:58:23.611Z,15.43
2018-02-17T22:00:52.111Z,15.10
2018-02-17T22:03:19.838Z,16.60
2018-02-17T22:05:47.562Z,16.02
2018-02-17T22:08:15.286Z,15.48
2018-02-17T22:10:43.766Z,14.87
2018-02-17T22:13:12.251Z,15.18
2018-02-17T22:15:40.738Z,14.10
2018-02-17T22:18:08.459Z,14.20
2018-02-17T22:20:36.175Z,14.80
2018-02-17T22:23:03.901Z,16.00
2018-02-17T22:25:31.630Z,16.00
2018-02-17T22:27:59.350Z,15.85
2018-02-17T22:30:27.834Z,13.70
2018-02-17T22:32:56.338Z,13.88
2018-02-17T22:35:24.105Z,14.00
2018-02-17T22:37:51.831Z,14.18
2018-02-17T22:40:20.314Z,13.30
2018-02-17T22:42:48.799Z,13.05
2018-02-17T22:45:17.282Z,13.73
2018-02-17T22:47:45.810Z,13.70
2018-02-17T22:50:13.550Z,12.73
2018-02-17T22:52:41.274Z,13.43
2018-02-17T22:55:08.989Z,13.82
2018-02-17T22:57:36.714Z,14.57
2018-02-17T23:00:04.850Z,15.88
2018-02-17T23:02:32.569Z,15.27
2018-02-17T23:05:01.067Z,15.85
2018-02-17T23:07:28.818Z,15.00
2018-02-17T23:09:57.303Z,15.52
2018-02-17T23:12:25.022Z,17.02
2018-02-17T23:14:52.742Z,17.83
2018-02-17T23:17:20.462Z,16.55
2018-02-17T23:19:48.221Z,14.63
2018-02-17T23:22:15.938Z,16.90
2018-02-17T23:24:43.666Z,15.40
2018-02-17T23:27:12.218Z,13.82
2018-02-17T23:29:39.943Z,13.75
2018-02-17T23:32:07.678Z,14.57
2018-02-17T23:34:36.162Z,12.98
2018-02-17T23:37:04.652Z,14.55
2018-02-17T23:39:33.195Z,12.40
2018-02-17T23:42:00.927Z,13.32
2018-02-17T23:44:28.661Z,13.75
2018-02-17T23:46:57.142Z,13.62
2018-02-17T23:49:25.629Z,12.52
2018-02-17T23:51:54.155Z,13.60
2018-02-17T23:54:21.869Z,13.40
2018-02-17T23:56:49.642Z,12.48
2018-02-17T23:59:18.140Z,12.82
